createdAt,value
2023-05-11T00:01:57.618Z,12.6
2023-05-11T00:21:08.282Z,11.9
2023-05-11T00:46:30.990Z,12.8
2023-05-11T00:52:38.444Z,12.8
2023-05-11T00:58:30.558Z,12.8
2023-05-11T01:29:55.566Z,12.8
2023-05-11T01:49:14.058Z,12.8
2023-05-11T02:42:06.818Z,12.6
2023-05-11T02:55:35.807Z,12.4
2023-05-11T03:01:31.813Z,12.6
2023-05-11T03:07:25.624Z,12.5
2023-05-11T03:19:20.420Z,11.4
2023-05-11T03:25:24.787Z,12
2023-05-11T03:31:16.660Z,12
2023-05-11T03:37:11.675Z,12.1
2023-05-11T03:43:03.700Z,12.1
2023-05-11T03:48:57.962Z,12.1
2023-05-11T03:54:50.869Z,12.1
2023-05-11T04:00:44.038Z,12.3
2023-05-11T04:06:37.031Z,12.1
2023-05-11T04:12:30.727Z,12
2023-05-11T04:18:25.102Z,11.9
2023-05-11T04:24:27.284Z,11.9
2023-05-11T04:30:20.637Z,12
2023-05-11T04:36:15.613Z,11.9
2023-05-11T04:42:18.885Z,11.9
2023-05-11T04:48:11.090Z,11.9
2023-05-11T04:54:17.308Z,11.9
2023-05-11T05:00:08.845Z,11.7
2023-05-11T05:05:58.984Z,11.8
2023-05-11T05:11:49.772Z,11.9
2023-05-11T05:17:40.966Z,11.9
2023-05-11T05:23:31.525Z,11.8
2023-05-11T05:29:22.700Z,11.9
2023-05-11T05:35:15.478Z,12
2023-05-11T05:41:06.038Z,12
2023-05-11T05:46:57.008Z,12
2023-05-11T05:52:47.146Z,11.8
2023-05-11T05:58:39.617Z,12
2023-05-11T06:04:30.433Z,12.4
2023-05-11T06:10:22.076Z,12.3
2023-05-11T06:16:13.343Z,12.1
2023-05-11T06:22:06.786Z,12.1
2023-05-11T06:27:58.184Z,12.4
2023-05-11T06:33:49.691Z,12.5
2023-05-11T06:39:41.046Z,12.7
2023-05-11T06:45:32.779Z,12.2
2023-05-11T06:51:24.589Z,12.6
2023-05-11T06:57:15.390Z,12.6
2023-05-11T07:03:06.882Z,12.9
2023-05-11T07:08:58.351Z,12.9
2023-05-11T07:14:49.002Z,13
2023-05-11T07:20:40.649Z,12.7
2023-05-11T07:26:32.482Z,12.6
2023-05-11T07:32:25.050Z,12.7
2023-05-11T07:38:16.871Z,12.8
2023-05-11T07:44:09.685Z,13.1
2023-05-11T07:50:04.305Z,13.1
2023-05-11T07:55:55.929Z,13.5
2023-05-11T08:01:47.611Z,13.3
2023-05-11T08:07:41.722Z,13.6
2023-05-11T08:13:33.256Z,13.7
2023-05-11T08:19:24.949Z,13.7
2023-05-11T08:25:17.104Z,14.2
2023-05-11T08:31:07.679Z,13.8
2023-05-11T08:36:59.659Z,14.3
2023-05-11T08:42:52.393Z,14.4
2023-05-11T08:48:46.307Z,14.3
2023-05-11T08:54:38.273Z,14.5
2023-05-11T09:00:35.067Z,14.5
2023-05-11T09:06:27.242Z,14.7
2023-05-11T09:12:18.138Z,14.4
2023-05-11T09:18:08.388Z,14.7
2023-05-11T09:24:00.587Z,14.8
2023-05-11T09:29:53.583Z,14.8
2023-05-11T09:35:47.403Z,15
2023-05-11T09:41:39.045Z,14.9
2023-05-11T09:47:37.972Z,15.2
2023-05-11T09:53:34.293Z,15.2
2023-05-11T09:59:26.720Z,15.2
2023-05-11T10:05:18.362Z,15.1
2023-05-11T10:11:26.098Z,15.3
2023-05-11T10:17:21.911Z,15.4
2023-05-11T10:23:12.652Z,16.1
2023-05-11T10:29:03.799Z,16.3
2023-05-11T10:34:53.790Z,15.9
2023-05-11T10:40:43.128Z,15.9
2023-05-11T10:46:32.360Z,16.6
2023-05-11T10:52:21.926Z,16.3
2023-05-11T10:58:15.553Z,16.6
2023-05-11T11:04:07.323Z,16.6
2023-05-11T11:09:58.817Z,16.9
2023-05-11T11:15:51.552Z,17.1
2023-05-11T11:27:54.961Z,17.5
2023-05-11T11:34:06.641Z,17.3
2023-05-11T11:52:55.171Z,17.2
2023-05-11T11:58:47.589Z,17.2
2023-05-11T12:04:44.326Z,17
2023-05-11T12:10:36.738Z,17.3
2023-05-11T12:16:30.281Z,17.5
2023-05-11T12:22:23.526Z,17.4
2023-05-11T12:28:17.362Z,17.1
2023-05-11T12:34:10.794Z,17.5
2023-05-11T12:40:05.264Z,17.6
2023-05-11T12:45:58.111Z,17.8
2023-05-11T12:51:50.693Z,18.1
2023-05-11T12:57:44.225Z,18.1
2023-05-11T13:03:40.085Z,17.8
2023-05-11T13:09:35.745Z,17.7
2023-05-11T13:15:39.268Z,17.6
2023-05-11T13:21:32.764Z,17.5
2023-05-11T13:27:27.165Z,18
2023-05-11T13:33:19.691Z,17.7
2023-05-11T13:39:17.202Z,17.6
2023-05-11T13:45:11.793Z,17.4
2023-05-11T13:51:02.973Z,17.6
2023-05-11T13:56:53.204Z,17.6
2023-05-11T14:02:46.088Z,17.6
2023-05-11T14:08:38.192Z,17.4
2023-05-11T14:14:30.350Z,17.8
2023-05-11T14:20:23.447Z,17.5
2023-05-11T14:26:14.960Z,17.5
2023-05-11T14:32:08.797Z,17.5
2023-05-11T14:38:01.531Z,17.4
2023-05-11T14:43:55.339Z,17.5
2023-05-11T14:49:48.692Z,17.4
2023-05-11T14:55:41.081Z,17.5
2023-05-11T15:01:32.417Z,17.1
2023-05-11T15:07:24.960Z,17.2
2023-05-11T15:13:16.921Z,17
2023-05-11T15:19:12.027Z,16.9
2023-05-11T15:25:05.144Z,16.8
2023-05-11T15:30:58.285Z,16.7
2023-05-11T15:36:50.704Z,16.6
2023-05-11T15:42:42.827Z,16.6
2023-05-11T15:48:35.279Z,16.5
2023-05-11T15:54:26.928Z,16.4
2023-05-11T16:00:22.974Z,16.3
2023-05-11T16:06:15.042Z,16.2
2023-05-11T16:12:07.596Z,16.2
2023-05-11T16:18:01.115Z,16
2023-05-11T16:23:56.634Z,16
2023-05-11T16:29:49.069Z,15.7
2023-05-11T16:35:42.452Z,15.7
2023-05-11T16:41:35.238Z,15.8
2023-05-11T16:47:29.029Z,15.6
2023-05-11T16:53:23.180Z,15.6
2023-05-11T16:59:15.544Z,15.5
2023-05-11T17:05:08.174Z,15.5
2023-05-11T17:11:02.503Z,15.5
2023-05-11T17:16:53.721Z,15.6
2023-05-11T17:22:46.889Z,15.6
2023-05-11T17:28:38.351Z,15.5
2023-05-11T17:34:30.537Z,15.6
2023-05-11T17:40:24.061Z,15.6
2023-05-11T17:46:16.370Z,15.2
2023-05-11T17:52:08.155Z,14.8
2023-05-11T17:58:00.732Z,14.6
2023-05-11T18:03:53.453Z,14.7
2023-05-11T18:09:47.990Z,14.9
2023-05-11T18:15:40.059Z,15
2023-05-11T18:21:31.995Z,14.7
2023-05-11T18:27:24.431Z,15
2023-05-11T18:33:16.535Z,14.9
2023-05-11T18:39:09.671Z,14.9
2023-05-11T18:45:01.292Z,14.9
2023-05-11T18:50:55.150Z,14.9
2023-05-11T18:56:47.640Z,14.9
2023-05-11T19:02:39.277Z,14.8
2023-05-11T19:08:32.046Z,14.9
2023-05-11T19:14:24.536Z,14.9
2023-05-11T19:20:17.452Z,14.6
2023-05-11T19:26:09.886Z,14.7
2023-05-11T19:32:02.752Z,14.7
2023-05-11T19:37:55.409Z,14.6
2023-05-11T19:43:47.598Z,14.6
2023-05-11T19:49:39.939Z,14.6
2023-05-11T19:55:32.384Z,14.4
2023-05-11T20:01:25.868Z,14.4
2023-05-11T20:07:19.361Z,14.5
2023-05-11T20:13:14.335Z,14.6
2023-05-11T20:19:06.692Z,14.4
2023-05-11T20:25:00.940Z,14.4
2023-05-11T20:31:02.817Z,14.5
2023-05-11T20:38:02.609Z,14.5
2023-05-11T20:43:53.124Z,14.3
2023-05-11T20:49:50.755Z,14.3
2023-05-11T20:55:44.390Z,14.4
2023-05-11T21:01:39.063Z,14.3
2023-05-11T21:07:33.688Z,14.3
2023-05-11T21:13:26.214Z,14.3
2023-05-11T21:19:18.712Z,14.2
2023-05-11T21:25:11.715Z,14.2
2023-05-11T21:31:04.930Z,14.1
2023-05-11T21:36:57.224Z,14.1
2023-05-11T21:42:49.832Z,14
2023-05-11T21:48:42.760Z,14.1
2023-05-11T21:54:36.887Z,14.1
2023-05-11T22:00:29.091Z,14.1
2023-05-11T22:06:21.733Z,14
2023-05-11T22:12:14.476Z,14
2023-05-11T22:18:06.147Z,14.1
2023-05-11T22:24:03.402Z,13.9
2023-05-11T22:30:01.858Z,14.1
2023-05-11T22:35:56.805Z,14
2023-05-11T22:41:49.092Z,13.9
2023-05-11T22:47:40.355Z,14
2023-05-11T22:53:30.929Z,14.1
2023-05-11T22:59:21.101Z,14
2023-05-11T23:05:13.766Z,14
2023-05-11T23:11:05.260Z,13.9
2023-05-11T23:17:00.796Z,14
2023-05-11T23:22:58.295Z,14
2023-05-11T23:28:52.097Z,14
2023-05-11T23:34:42.455Z,13.9
2023-05-11T23:40:34.440Z,13.7
2023-05-11T23:46:27.676Z,13.6
2023-05-11T23:52:20.492Z,13.8
2023-05-11T23:58:11.631Z,14
